Time;durP1;ratioP1;P1;durP2;ratioP2;P2;SDS_P1;SDS_P2;PMS_P1;PMS_P2;Temp;Humidity;BMP_temperature;BMP_pressure;BME280_temperature;BME280_humidity;BME280_pressure;Samples;Min_cycle;Max_cycle;Signal;HPM_P1;HPM_P2
2023/08/11 00:01:29;;;;;;;15.82;3.00;;;;;;;16.25;100.00;100098.41;5038142;28;20028;-82
2023/08/11 00:03:55;;;;;;;15.32;2.00;;;;;;;16.22;100.00;100104.09;5022202;28;20028;-82
2023/08/11 00:06:21;;;;;;;17.83;3.85;;;;;;;16.21;100.00;100103.28;5045543;28;20037;-82
2023/08/11 00:08:47;;;;;;;20.65;3.58;;;;;;;16.20;100.00;100101.63;5026061;28;20335;-80
2023/08/11 00:11:12;;;;;;;18.98;3.35;;;;;;;16.23;100.00;100103.91;5020666;28;20438;-80
2023/08/11 00:13:38;;;;;;;19.83;4.03;;;;;;;16.24;100.00;100102.09;5041550;28;20040;-81
2023/08/11 00:16:04;;;;;;;14.35;2.75;;;;;;;16.24;100.00;100110.88;5024384;28;20033;-82
2023/08/11 00:18:30;;;;;;;16.38;3.63;;;;;;;16.24;100.00;100110.09;5039730;28;20115;-82
2023/08/11 00:20:57;;;;;;;21.85;3.40;;;;;;;16.22;100.00;100106.78;5011318;28;20503;-82
2023/08/11 00:23:24;;;;;;;12.73;2.90;;;;;;;16.21;100.00;100102.47;5027297;28;20033;-80
2023/08/11 00:25:50;;;;;;;17.73;3.03;;;;;;;16.19;100.00;100112.50;5024976;28;20222;-80
2023/08/11 00:28:16;;;;;;;18.55;2.97;;;;;;;16.20;100.00;100104.28;5029671;28;20051;-82
2023/08/11 00:30:42;;;;;;;20.80;3.70;;;;;;;16.17;100.00;100107.34;5017074;28;20593;-81
2023/08/11 00:33:08;;;;;;;18.35;4.38;;;;;;;16.14;100.00;100109.56;4993540;28;20041;-81
2023/08/11 00:35:34;;;;;;;21.00;3.28;;;;;;;16.09;100.00;100116.28;5013479;28;20052;-82
2023/08/11 00:38:01;;;;;;;20.23;3.65;;;;;;;16.02;100.00;100114.56;5025026;28;20499;-81
2023/08/11 00:40:27;;;;;;;13.50;2.85;;;;;;;15.99;100.00;100121.09;5028577;28;20493;-82
2023/08/11 00:42:52;;;;;;;19.92;3.33;;;;;;;15.98;100.00;100124.78;5027456;28;20086;-81
2023/08/11 00:45:18;;;;;;;18.95;2.85;;;;;;;15.98;100.00;100127.44;5025457;28;20036;-82
2023/08/11 00:47:45;;;;;;;23.60;3.88;;;;;;;15.99;100.00;100127.25;5024972;28;20033;-82
2023/08/11 00:50:13;;;;;;;20.10;3.15;;;;;;;16.02;100.00;100119.91;5025496;28;20024;-81
2023/08/11 00:52:39;;;;;;;13.18;3.03;;;;;;;16.01;100.00;100119.06;5041362;28;20099;-81
2023/08/11 00:55:09;;;;;;;14.55;2.50;;;;;;;15.97;100.00;100117.78;5017083;28;20032;-82
2023/08/11 00:57:38;;;;;;;24.05;2.90;;;;;;;15.93;100.00;100124.47;5017748;28;20591;-82
2023/08/11 01:00:15;;;;;;;14.57;2.58;;;;;;;15.87;100.00;100118.91;5014754;28;20033;-81
2023/08/11 01:02:43;;;;;;;10.45;2.17;;;;;;;15.83;100.00;100114.13;5032794;28;20032;-82
2023/08/11 01:05:11;;;;;;;15.45;2.75;;;;;;;15.79;100.00;100118.16;5044409;28;20040;-82
2023/08/11 01:08:04;;;;;;;16.23;2.50;;;;;;;15.77;100.00;100099.72;5033281;28;20394;-82
2023/08/11 01:10:36;;;;;;;15.30;3.42;;;;;;;15.74;100.00;100098.25;5027635;28;20053;-81
2023/08/11 01:13:14;;;;;;;13.50;2.72;;;;;;;15.71;100.00;100108.44;5032582;28;20032;-81
2023/08/11 01:15:45;;;;;;;19.38;3.30;;;;;;;15.67;100.00;100118.66;5025274;28;20043;-82
2023/08/11 01:18:12;;;;;;;14.85;2.70;;;;;;;15.66;100.00;100125.00;5017639;28;20046;-82
2023/08/11 01:20:39;;;;;;;18.27;2.60;;;;;;;15.62;100.00;100116.53;5013434;28;20037;-82
2023/08/11 01:23:07;;;;;;;13.80;2.53;;;;;;;15.58;100.00;100127.75;5009388;28;20033;-82
2023/08/11 01:25:34;;;;;;;14.50;2.35;;;;;;;15.45;100.00;100110.59;5012584;28;20377;-82
2023/08/11 01:28:00;;;;;;;12.13;2.72;;;;;;;15.32;100.00;100115.75;5026106;28;20037;-80
2023/08/11 01:30:28;;;;;;;18.50;3.08;;;;;;;15.19;100.00;100117.22;5008006;28;20037;-80
2023/08/11 01:32:54;;;;;;;11.55;2.85;;;;;;;15.13;100.00;100131.25;5006506;28;20203;-80
2023/08/11 01:35:21;;;;;;;18.17;2.95;;;;;;;15.16;100.00;100140.72;4947762;28;20037;-81
2023/08/11 01:37:50;;;;;;;15.50;3.10;;;;;;;15.16;100.00;100144.19;5021766;28;20116;-81
2023/08/11 01:40:16;;;;;;;15.30;2.75;;;;;;;15.22;100.00;100137.31;5019763;28;20036;-80
2023/08/11 01:42:43;;;;;;;17.02;3.53;;;;;;;15.25;100.00;100121.81;5017109;28;20065;-80
2023/08/11 01:45:11;;;;;;;17.15;3.17;;;;;;;15.27;100.00;100121.63;5017701;28;20034;-81
2023/08/11 01:47:41;;;;;;;19.05;2.95;;;;;;;15.29;100.00;100116.13;5028336;28;20061;-81
2023/08/11 01:50:09;;;;;;;17.63;3.38;;;;;;;15.29;100.00;100113.47;5027218;28;20636;-81
2023/08/11 01:52:39;;;;;;;19.67;3.05;;;;;;;15.33;100.00;100115.56;5019017;28;20037;-81
2023/08/11 01:55:06;;;;;;;14.60;3.17;;;;;;;15.34;100.00;100108.38;5027828;28;20036;-81
2023/08/11 01:57:34;;;;;;;22.00;3.53;;;;;;;15.33;100.00;100104.94;5006710;28;20064;-81
2023/08/11 02:00:00;;;;;;;17.50;3.97;;;;;;;15.32;100.00;100105.09;4993279;28;20033;-81
2023/08/11 02:02:26;;;;;;;17.50;4.03;;;;;;;15.32;100.00;100110.44;5005508;28;20080;-81
2023/08/11 02:04:52;;;;;;;11.00;2.60;;;;;;;15.30;100.00;100105.28;5024474;28;20120;-80
2023/08/11 02:07:18;;;;;;;21.80;3.58;;;;;;;15.32;100.00;100105.09;5009956;28;20041;-80
2023/08/11 02:09:44;;;;;;;19.77;3.58;;;;;;;15.28;100.00;100101.97;4988523;28;20037;-81
2023/08/11 02:12:09;;;;;;;19.58;4.03;;;;;;;15.24;100.00;100100.69;5020373;28;20029;-81
2023/08/11 02:14:35;;;;;;;15.48;2.70;;;;;;;15.16;100.00;100098.13;5027628;28;20049;-81
2023/08/11 02:17:01;;;;;;;19.83;2.95;;;;;;;15.11;100.00;100104.81;5019371;28;20037;-81
2023/08/11 02:19:27;;;;;;;11.93;2.65;;;;;;;15.07;100.00;100094.72;5009807;28;20516;-81
2023/08/11 02:21:53;;;;;;;11.93;2.60;;;;;;;15.05;100.00;100100.22;4990821;28;20451;-81
2023/08/11 02:24:18;;;;;;;14.52;3.00;;;;;;;15.07;100.00;100097.38;5009632;28;20033;-81
2023/08/11 02:26:44;;;;;;;15.60;2.83;;;;;;;15.05;100.00;100092.22;5025748;28;20041;-81
2023/08/11 02:29:10;;;;;;;13.38;3.25;;;;;;;15.02;100.00;100091.78;4994179;28;20041;-81
2023/08/11 02:31:36;;;;;;;21.70;5.05;;;;;;;15.00;100.00;100089.31;5018268;28;20041;-81
2023/08/11 02:34:02;;;;;;;16.38;3.30;;;;;;;15.00;100.00;100102.63;5003402;28;20503;-79
2023/08/11 02:36:27;;;;;;;21.63;3.75;;;;;;;14.95;100.00;100095.19;5028124;28;20496;-80
2023/08/11 02:38:53;;;;;;;25.67;4.20;;;;;;;14.90;100.00;100088.72;5005979;28;20033;-81
2023/08/11 02:41:20;;;;;;;23.25;3.83;;;;;;;14.90;100.00;100084.25;5016380;28;20095;-81
2023/08/11 02:43:46;;;;;;;26.05;3.97;;;;;;;14.90;100.00;100088.72;5023308;28;20034;-81
2023/08/11 02:46:12;;;;;;;28.83;4.80;;;;;;;14.92;100.00;100097.38;5008165;28;20376;-81
2023/08/11 02:48:39;;;;;;;26.65;4.95;;;;;;;14.92;100.00;100092.06;5007037;28;20044;-81
2023/08/11 02:51:05;;;;;;;22.67;3.55;;;;;;;14.92;100.00;100092.06;5025056;28;20431;-81
2023/08/11 02:53:31;;;;;;;21.38;3.72;;;;;;;14.94;100.00;100101.50;5013329;28;20061;-81
2023/08/11 02:55:58;;;;;;;24.48;4.75;;;;;;;14.93;100.00;100099.84;5009354;28;20034;-81
2023/08/11 02:58:24;;;;;;;26.38;4.38;;;;;;;14.91;100.00;100103.72;4992608;28;20430;-80
2023/08/11 03:00:50;;;;;;;26.30;5.15;;;;;;;14.89;100.00;100114.53;5005413;28;20046;-80
2023/08/11 03:03:16;;;;;;;29.10;4.78;;;;;;;14.87;100.00;100113.88;5003440;28;20045;-81
2023/08/11 03:05:45;;;;;;;21.55;4.40;;;;;;;14.87;100.00;100112.03;5006708;28;20036;-81
2023/08/11 03:08:11;;;;;;;27.13;4.72;;;;;;;14.84;100.00;100109.72;5010943;28;20032;-81
2023/08/11 03:10:37;;;;;;;21.35;4.07;;;;;;;14.84;100.00;100108.94;5023366;28;20033;-81
2023/08/11 03:13:03;;;;;;;20.85;4.10;;;;;;;14.79;100.00;100109.47;5008616;28;20507;-81
2023/08/11 03:15:29;;;;;;;19.83;4.13;;;;;;;14.77;100.00;100119.41;5024032;28;20087;-81
2023/08/11 03:17:56;;;;;;;25.27;3.70;;;;;;;14.73;100.00;100112.81;5024766;28;20056;-81
2023/08/11 03:20:24;;;;;;;26.60;4.15;;;;;;;14.66;100.00;100110.03;5018415;28;20098;-81
2023/08/11 03:22:50;;;;;;;19.38;4.63;;;;;;;14.64;100.00;100114.72;5007994;28;20042;-81
2023/08/11 03:25:20;;;;;;;21.77;4.18;;;;;;;14.64;100.00;100112.03;5003775;28;20037;-80
2023/08/11 03:27:47;;;;;;;27.38;4.88;;;;;;;14.62;100.00;100116.75;5010055;28;20040;-80
2023/08/11 03:30:19;;;;;;;25.88;4.00;;;;;;;14.64;100.00;100109.38;5011638;28;20033;-81
2023/08/11 03:32:49;;;;;;;23.83;4.90;;;;;;;14.63;100.00;100108.59;5008496;28;20045;-81
2023/08/11 03:35:17;;;;;;;21.50;4.38;;;;;;;14.63;100.00;100105.09;5027607;28;20480;-81
2023/08/11 03:37:45;;;;;;;28.58;4.35;;;;;;;14.60;100.00;100098.31;5010672;28;20404;-80
2023/08/11 03:40:12;;;;;;;29.00;4.38;;;;;;;14.60;100.00;100111.59;5012233;28;20029;-81
2023/08/11 03:42:42;;;;;;;26.80;4.53;;;;;;;14.62;100.00;100108.75;5011618;28;20126;-81
2023/08/11 03:45:11;;;;;;;26.88;4.07;;;;;;;14.63;100.00;100103.25;5018913;28;20112;-81
2023/08/11 03:47:40;;;;;;;17.98;3.45;;;;;;;14.65;100.00;100103.09;5003297;28;20029;-81
2023/08/11 03:50:08;;;;;;;22.33;3.45;;;;;;;14.70;100.00;100105.19;5005396;28;20052;-81
2023/08/11 03:52:36;;;;;;;24.15;3.58;;;;;;;14.71;100.00;100102.34;5006357;28;20041;-81
2023/08/11 03:55:02;;;;;;;22.27;3.85;;;;;;;14.73;100.00;100104.84;5017379;28;20042;-79
2023/08/11 03:57:28;;;;;;;18.73;3.75;;;;;;;14.70;100.00;100103.34;5025997;28;20030;-79
2023/08/11 03:59:54;;;;;;;24.75;3.92;;;;;;;14.71;100.00;100098.88;4987913;28;20100;-79
2023/08/11 04:02:20;;;;;;;21.95;4.03;;;;;;;14.70;100.00;100103.34;5040119;28;20799;-79
2023/08/11 04:04:46;;;;;;;16.92;3.00;;;;;;;14.69;100.00;100104.38;5026340;28;20038;-81
2023/08/11 04:07:12;;;;;;;19.88;3.75;;;;;;;14.67;100.00;100103.72;5006036;28;20550;-81
2023/08/11 04:09:44;;;;;;;16.85;3.42;;;;;;;14.61;100.00;100102.59;5023849;28;20038;-81
2023/08/11 04:12:10;;;;;;;29.02;3.85;;;;;;;14.56;100.00;100091.66;5006000;28;20399;-81
2023/08/11 04:14:39;;;;;;;23.33;3.75;;;;;;;14.54;100.00;100095.53;5021537;28;20190;-81
2023/08/11 04:17:05;;;;;;;22.13;3.65;;;;;;;14.49;100.00;100086.22;5020945;28;20112;-80
2023/08/11 04:19:32;;;;;;;22.83;4.00;;;;;;;14.46;100.00;100088.44;5018139;28;20440;-81
2023/08/11 04:21:59;;;;;;;18.75;3.53;;;;;;;14.43;100.00;100083.50;5025853;28;20030;-81
2023/08/11 04:24:25;;;;;;;16.88;3.25;;;;;;;14.42;100.00;100097.75;5020059;28;20029;-81
2023/08/11 04:26:51;;;;;;;15.85;3.40;;;;;;;14.37;100.00;100096.47;4995536;28;20147;-81
2023/08/11 04:29:18;;;;;;;19.70;3.42;;;;;;;14.36;100.00;100091.34;5012216;28;20117;-80
2023/08/11 04:31:45;;;;;;;14.93;3.55;;;;;;;14.35;100.00;100092.34;5025890;28;20087;-79
2023/08/11 04:34:15;;;;;;;22.40;3.58;;;;;;;14.36;100.00;100088.69;5024441;28;20030;-81
2023/08/11 04:36:41;;;;;;;18.77;3.38;;;;;;;14.34;100.00;100091.53;5026963;28;20392;-81
2023/08/11 04:39:07;;;;;;;18.13;2.95;;;;;;;14.32;100.00;100074.91;5024860;28;20026;-81
2023/08/11 04:41:33;;;;;;;15.18;3.33;;;;;;;14.31;100.00;100073.28;5026606;28;20045;-81
2023/08/11 04:43:59;;;;;;;19.25;3.83;;;;;;;14.30;100.00;100073.44;5024097;28;20392;-82
2023/08/11 04:46:26;;;;;;;14.30;2.38;;;;;;;14.27;100.00;100071.94;4994690;28;20181;-81
2023/08/11 04:48:52;;;;;;;16.42;3.13;;;;;;;14.28;100.00;100065.66;5006693;28;20814;-82
2023/08/11 04:51:17;;;;;;;24.00;4.15;;;;;;;14.28;100.00;100070.97;5003439;28;20100;-81
2023/08/11 04:53:43;;;;;;;18.30;3.85;;;;;;;14.26;100.00;100065.84;5005704;28;20034;-81
2023/08/11 04:56:09;;;;;;;13.52;2.80;;;;;;;14.29;100.00;100061.97;5024193;28;20396;-81
2023/08/11 04:58:35;;;;;;;18.15;3.38;;;;;;;14.30;100.00;100063.63;5011744;28;20038;-81
2023/08/11 05:01:03;;;;;;;19.23;3.60;;;;;;;14.32;100.00;100060.78;5012927;28;20046;-81
2023/08/11 05:03:29;;;;;;;19.77;3.63;;;;;;;14.34;100.00;100061.44;5023469;28;20026;-81
2023/08/11 05:05:55;;;;;;;20.63;3.10;;;;;;;14.36;100.00;100056.78;5031631;28;20459;-81
2023/08/11 05:08:21;;;;;;;17.83;3.03;;;;;;;14.37;100.00;100063.75;5011797;28;20044;-80
2023/08/11 05:10:47;;;;;;;15.55;3.38;;;;;;;14.38;100.00;100065.41;5024676;28;20033;-80
2023/08/11 05:13:13;;;;;;;18.25;3.08;;;;;;;14.39;100.00;100069.72;5017391;28;20416;-81
2023/08/11 05:15:40;;;;;;;16.20;3.03;;;;;;;14.41;100.00;100067.72;5025200;28;20513;-81
2023/08/11 05:18:06;;;;;;;21.27;4.07;;;;;;;14.41;100.00;100061.56;5024130;28;20065;-81
2023/08/11 05:20:32;;;;;;;20.65;2.92;;;;;;;14.40;100.00;100063.38;5029055;28;20427;-81
2023/08/11 05:22:58;;;;;;;14.15;3.08;;;;;;;14.38;100.00;100063.56;5008495;28;20029;-81
2023/08/11 05:25:23;;;;;;;14.48;2.85;;;;;;;14.38;100.00;100052.13;5022961;28;20095;-81
2023/08/11 05:27:49;;;;;;;21.60;3.90;;;;;;;14.38;100.00;100060.09;5015769;28;20193;-81
2023/08/11 05:30:15;;;;;;;16.88;2.80;;;;;;;14.37;100.00;100063.75;5011472;28;20041;-80
2023/08/11 05:32:41;;;;;;;18.00;2.95;;;;;;;14.36;100.00;100059.44;5024036;28;20087;-81
2023/08/11 05:35:08;;;;;;;18.70;2.88;;;;;;;14.39;100.00;100051.94;5029065;28;20072;-80
2023/08/11 05:37:34;;;;;;;19.23;2.80;;;;;;;14.41;100.00;100061.56;5025789;28;20034;-80
2023/08/11 05:40:00;;;;;;;19.75;3.17;;;;;;;14.42;100.00;100053.41;5024910;28;20034;-81
2023/08/11 05:42:26;;;;;;;30.30;3.97;;;;;;;14.45;100.00;100065.50;5024685;28;20037;-81
2023/08/11 05:44:52;;;;;;;16.02;3.10;;;;;;;14.46;100.00;100060.00;5007176;28;20038;-81
2023/08/11 05:47:17;;;;;;;23.25;3.45;;;;;;;14.47;100.00;100056.34;5037375;28;20029;-81
2023/08/11 05:49:43;;;;;;;18.38;3.35;;;;;;;14.49;100.00;100066.81;5022258;28;20037;-81
2023/08/11 05:52:09;;;;;;;21.17;3.40;;;;;;;14.51;100.00;100062.13;5022895;28;20042;-81
2023/08/11 05:54:35;;;;;;;18.08;3.08;;;;;;;14.52;100.00;100064.59;5022719;28;20064;-81
2023/08/11 05:57:01;;;;;;;12.77;2.65;;;;;;;14.55;100.00;100073.22;5017823;28;20030;-81
2023/08/11 05:59:26;;;;;;;19.65;3.40;;;;;;;14.55;100.00;100071.41;5018720;28;20041;-80
2023/08/11 06:01:52;;;;;;;19.00;3.20;;;;;;;14.58;100.00;100072.88;5024892;28;20080;-81
2023/08/11 06:04:18;;;;;;;19.02;3.22;;;;;;;14.60;100.00;100074.38;5012478;28;20033;-81
2023/08/11 06:06:44;;;;;;;19.83;3.67;;;;;;;14.62;100.00;100071.53;5020724;28;20030;-81
2023/08/11 06:09:10;;;;;;;15.00;3.13;;;;;;;14.64;100.00;100078.31;5012124;28;20409;-79
2023/08/11 06:11:36;;;;;;;17.33;2.88;;;;;;;14.66;100.00;100082.59;4979701;28;20037;-79
2023/08/11 06:14:02;;;;;;;16.23;2.80;;;;;;;14.70;100.00;100087.38;5020562;28;20033;-80
2023/08/11 06:16:28;;;;;;;17.50;2.88;;;;;;;14.74;100.00;100090.53;5020698;28;20033;-81
2023/08/11 06:18:54;;;;;;;21.25;2.90;;;;;;;14.76;100.00;100091.97;4994461;28;20462;-80
2023/08/11 06:21:20;;;;;;;15.82;3.03;;;;;;;14.81;100.00;100090.66;5010004;28;20565;-80
2023/08/11 06:23:47;;;;;;;18.15;2.75;;;;;;;14.85;100.00;100090.13;5006453;28;20037;-81
2023/08/11 06:26:12;;;;;;;16.50;2.42;;;;;;;14.86;100.00;100096.25;5015444;28;20041;-81
2023/08/11 06:28:39;;;;;;;15.63;3.30;;;;;;;14.87;100.00;100090.75;5010279;28;20821;-80
2023/08/11 06:31:05;;;;;;;14.40;3.22;;;;;;;14.91;100.00;100096.53;5025458;28;20519;-80
2023/08/11 06:33:31;;;;;;;15.20;3.00;;;;;;;14.94;100.00;100103.34;5025359;28;20092;-70
2023/08/11 06:35:57;;;;;;;14.60;3.20;;;;;;;14.99;100.00;100101.78;5007946;28;20086;-81
2023/08/11 06:38:23;;;;;;;13.73;2.60;;;;;;;15.02;100.00;100102.44;5021866;28;20072;-81
2023/08/11 06:40:50;;;;;;;18.80;2.22;;;;;;;15.05;100.00;100097.56;4994714;28;20037;-81
2023/08/11 06:43:16;;;;;;;16.63;2.47;;;;;;;15.08;100.00;100088.41;5021822;28;20073;-81
2023/08/11 06:45:44;;;;;;;17.25;3.05;;;;;;;15.11;100.00;100080.84;5007118;28;20096;-81
2023/08/11 06:48:10;;;;;;;16.02;2.20;;;;;;;15.13;100.00;100092.16;4942727;28;20384;-80
2023/08/11 06:50:36;;;;;;;14.95;2.40;;;;;;;15.18;100.00;100083.59;5027232;28;20044;-79
2023/08/11 06:53:02;;;;;;;14.77;2.42;;;;;;;15.22;100.00;100087.56;4997480;28;20040;-81
2023/08/11 06:55:28;;;;;;;15.00;3.20;;;;;;;15.26;100.00;100080.03;5023274;28;20022;-81
2023/08/11 06:57:54;;;;;;;20.08;2.75;;;;;;;15.31;100.00;100072.31;5010043;28;20110;-81
2023/08/11 07:00:19;;;;;;;17.77;3.17;;;;;;;15.35;100.00;100075.44;5009412;28;20636;-81
2023/08/11 07:02:45;;;;;;;19.25;3.13;;;;;;;15.38;100.00;100073.22;5012771;28;20041;-80
2023/08/11 07:05:11;;;;;;;16.70;2.60;;;;;;;15.46;100.00;100069.66;5028780;28;20048;-81
2023/08/11 07:07:37;;;;;;;19.25;3.85;;;;;;;15.54;100.00;100070.53;5021712;28;20068;-81
2023/08/11 07:10:03;;;;;;;20.23;3.30;;;;;;;15.60;100.00;100075.97;5017702;28;20365;-80
2023/08/11 07:12:29;;;;;;;16.80;3.25;;;;;;;15.65;100.00;100083.38;5008213;28;20048;-80
2023/08/11 07:14:55;;;;;;;19.38;3.28;;;;;;;15.71;100.00;100092.47;5023666;28;20080;-80
2023/08/11 07:17:22;;;;;;;15.15;3.03;;;;;;;15.80;100.00;100085.19;5024144;28;20040;-80
2023/08/11 07:19:47;;;;;;;18.48;3.20;;;;;;;15.92;100.00;100093.50;5023484;28;20041;-81
2023/08/11 07:22:13;;;;;;;27.08;3.72;;;;;;;16.02;100.00;100090.59;5010673;28;20542;-81
2023/08/11 07:24:39;;;;;;;19.73;3.00;;;;;;;16.05;100.00;100082.22;5023408;28;20045;-81
2023/08/11 07:27:05;;;;;;;15.20;3.25;;;;;;;16.07;100.00;100088.19;5014392;28;20029;-81
2023/08/11 07:29:31;;;;;;;21.23;3.38;;;;;;;16.08;100.00;100080.00;5025448;28;20376;-82
2023/08/11 07:31:57;;;;;;;28.20;4.40;;;;;;;16.14;100.00;100091.72;5027862;28;20044;-81
2023/08/11 07:34:22;;;;;;;24.73;3.90;;;;;;;16.14;100.00;100089.06;5022389;28;20076;-82
2023/08/11 07:36:48;;;;;;;25.15;4.75;;;;;;;16.18;100.00;100087.66;4989386;28;20472;-81
2023/08/11 07:39:14;;;;;;;21.27;4.63;;;;;;;16.21;100.00;100092.59;5021678;28;20040;-81
2023/08/11 07:41:40;;;;;;;29.17;5.15;;;;;;;16.24;100.00;100094.88;5011648;28;20556;-81
2023/08/11 07:44:06;;;;;;;26.20;4.55;;;;;;;16.38;100.00;100092.38;5020060;28;20060;-82
2023/08/11 07:46:32;;;;;;;25.70;5.13;;;;;;;16.56;100.00;100091.88;5022347;28;20124;-81
2023/08/11 07:48:58;;;;;;;23.48;4.05;;;;;;;16.60;100.00;100092.31;5023684;28;20109;-81
2023/08/11 07:51:24;;;;;;;28.25;4.40;;;;;;;16.60;100.00;100087.00;5005298;28;20055;-81
2023/08/11 07:53:51;;;;;;;32.92;4.82;;;;;;;16.60;100.00;100095.84;5013431;28;20089;-82
2023/08/11 07:56:17;;;;;;;29.95;4.55;;;;;;;16.64;100.00;100087.44;5018253;28;20032;-81
2023/08/11 07:58:43;;;;;;;28.67;4.95;;;;;;;16.77;100.00;100092.06;5021235;28;20030;-82
2023/08/11 08:01:09;;;;;;;21.10;4.07;;;;;;;16.94;100.00;100080.06;5014276;28;20030;-81
2023/08/11 08:03:35;;;;;;;22.67;4.55;;;;;;;17.11;100.00;100085.94;5000118;28;20392;-82
2023/08/11 08:06:04;;;;;;;28.65;4.45;;;;;;;17.16;100.00;100082.69;5023070;28;20042;-81
2023/08/11 08:08:33;;;;;;;27.52;4.20;;;;;;;17.22;100.00;100075.72;5018531;28;20451;-81
2023/08/11 08:11:01;;;;;;;24.85;5.00;;;;;;;17.26;100.00;100077.00;5022118;28;20059;-82
2023/08/11 08:13:28;;;;;;;24.73;4.65;;;;;;;17.25;100.00;100085.19;5020923;28;20029;-82
2023/08/11 08:15:54;;;;;;;27.38;4.60;;;;;;;17.32;100.00;100086.88;5016594;28;20499;-82
2023/08/11 08:18:20;;;;;;;24.02;3.83;;;;;;;17.39;100.00;100088.75;5029442;28;20060;-82
2023/08/11 08:20:46;;;;;;;29.35;4.93;;;;;;;17.38;100.00;100095.09;5023781;28;20559;-82
2023/08/11 08:23:12;;;;;;;21.20;3.78;;;;;;;17.40;100.00;100090.41;5021417;28;20456;-81
2023/08/11 08:25:42;;;;;;;28.42;4.53;;;;;;;17.43;100.00;100090.84;5030749;28;20039;-82
2023/08/11 08:28:08;;;;;;;21.55;3.55;;;;;;;17.44;100.00;100089.00;5010702;28;20117;-82
2023/08/11 08:30:34;;;;;;;19.73;4.43;;;;;;;17.42;100.00;100081.19;5010727;28;20117;-82
2023/08/11 08:33:00;;;;;;;23.75;4.45;;;;;;;17.50;100.00;100085.53;5024727;28;20059;-82
2023/08/11 08:35:26;;;;;;;23.38;4.60;;;;;;;17.58;100.00;100073.84;4996432;28;20041;-82
2023/08/11 08:37:52;;;;;;;25.77;4.32;;;;;;;17.49;100.00;100094.53;5034233;28;20030;-82
2023/08/11 08:40:17;;;;;;;22.23;4.93;;;;;;;17.39;100.00;100080.75;5017406;28;20535;-82
2023/08/11 08:42:44;;;;;;;26.90;5.10;;;;;;;17.38;100.00;100085.25;5021641;28;20061;-82
2023/08/11 08:45:10;;;;;;;27.48;4.68;;;;;;;17.32;100.00;100083.38;5029557;28;20033;-82
2023/08/11 08:47:37;;;;;;;25.60;4.38;;;;;;;17.36;100.00;100069.41;5026882;28;20566;-82
2023/08/11 08:50:03;;;;;;;32.95;4.82;;;;;;;17.50;100.00;100055.28;5009399;28;20531;-82
2023/08/11 08:52:30;;;;;;;31.95;4.68;;;;;;;17.52;100.00;100064.75;5019093;28;20018;-82
2023/08/11 08:55:01;;;;;;;20.30;4.35;;;;;;;17.57;100.00;100056.13;5025537;28;20038;-82
2023/08/11 08:57:27;;;;;;;32.70;6.28;;;;;;;17.60;100.00;100059.22;5025943;28;20022;-82
2023/08/11 08:59:53;;;;;;;25.83;4.72;;;;;;;17.72;100.00;100054.16;5025746;28;20057;-82
2023/08/11 09:02:21;;;;;;;28.00;5.30;;;;;;;17.81;100.00;100056.63;5018254;28;20022;-82
2023/08/11 09:04:47;;;;;;;30.92;5.13;;;;;;;17.86;100.00;100043.47;5023295;28;20402;-83
2023/08/11 09:07:13;;;;;;;28.30;5.18;;;;;;;17.97;100.00;100039.38;5007669;28;20038;-82
2023/08/11 09:09:39;;;;;;;23.55;4.60;;;;;;;17.97;100.00;100047.41;5014311;28;20029;-83
2023/08/11 09:12:05;;;;;;;25.73;4.55;;;;;;;18.10;100.00;100046.59;5026892;28;20557;-83
2023/08/11 09:14:31;;;;;;;27.02;4.88;;;;;;;18.08;100.00;100038.78;5023550;28;20046;-82
2023/08/11 09:17:00;;;;;;;21.63;4.80;;;;;;;18.18;100.00;100040.25;5022863;28;20037;-81
2023/08/11 09:19:26;;;;;;;28.02;5.18;;;;;;;18.31;100.00;100040.28;5028991;28;20435;-83
2023/08/11 09:21:52;;;;;;;27.23;4.88;;;;;;;18.40;100.00;100030.16;5013529;28;20037;-82
2023/08/11 09:24:18;;;;;;;26.83;5.05;;;;;;;18.47;100.00;100022.94;5031780;28;20511;-82
2023/08/11 09:26:46;;;;;;;27.65;4.70;;;;;;;18.56;100.00;100026.25;5026792;28;20107;-83
2023/08/11 09:29:13;;;;;;;19.60;3.97;;;;;;;18.63;100.00;100026.25;5015981;28;20044;-82
2023/08/11 09:31:41;;;;;;;21.50;4.22;;;;;;;18.59;100.00;100015.13;5027252;28;20037;-83
2023/08/11 09:34:12;;;;;;;22.45;5.07;;;;;;;18.52;100.00;100008.13;5022843;28;20581;-82
2023/08/11 09:36:40;;;;;;;23.20;4.30;;;;;;;18.43;100.00;100012.88;5012762;28;20061;-83
2023/08/11 09:39:10;;;;;;;22.02;4.07;;;;;;;18.47;100.00;100006.09;5013340;28;20483;-83
2023/08/11 09:41:47;;;;;;;19.33;4.32;;;;;;;18.55;100.00;100010.41;5013278;28;20095;-83
2023/08/11 09:44:21;;;;;;;26.05;5.35;;;;;;;18.64;100.00;99997.59;5000502;28;20060;-83
2023/08/11 09:46:48;;;;;;;25.85;4.53;;;;;;;18.67;100.00;100014.09;5014621;28;20034;-83
2023/08/11 09:49:14;;;;;;;31.95;4.90;;;;;;;18.74;100.00;100003.38;4999786;28;20048;-83
2023/08/11 09:51:41;;;;;;;24.00;5.00;;;;;;;18.79;100.00;100010.78;5027005;28;20040;-83
2023/08/11 09:54:09;;;;;;;25.95;4.47;;;;;;;18.80;100.00;100009.72;5015017;28;20029;-83
2023/08/11 09:56:40;;;;;;;17.63;3.85;;;;;;;18.86;100.00;100003.53;5032321;28;20029;-83
2023/08/11 09:59:17;;;;;;;21.00;4.10;;;;;;;18.93;100.00;100004.34;5031365;28;20124;-83
2023/08/11 10:01:46;;;;;;;17.98;4.07;;;;;;;19.02;100.00;99998.72;5023579;28;20060;-83
2023/08/11 10:04:41;;;;;;;26.40;3.80;;;;;;;19.18;100.00;100000.16;4982429;28;20423;-83
2023/08/11 10:07:10;;;;;;;23.67;5.13;;;;;;;19.21;100.00;100002.41;5020958;28;20072;-83
2023/08/11 10:09:37;;;;;;;21.75;4.25;;;;;;;19.31;100.00;100010.00;5014252;28;20466;-83
2023/08/11 10:12:05;;;;;;;17.02;4.10;;;;;;;19.39;100.00;100012.44;5044470;28;20036;-82
2023/08/11 10:14:34;;;;;;;25.00;4.35;;;;;;;19.38;100.00;99992.03;4966558;28;20620;-82
2023/08/11 10:17:01;;;;;;;20.48;4.40;;;;;;;19.37;100.00;99985.03;5013156;28;20352;-83
2023/08/11 10:19:27;;;;;;;19.55;3.75;;;;;;;19.34;100.00;99990.81;5012390;28;20053;-82
2023/08/11 10:21:53;;;;;;;19.85;3.55;;;;;;;19.20;100.00;99988.22;5000012;28;20052;-82
2023/08/11 10:24:20;;;;;;;17.77;3.20;;;;;;;18.96;100.00;99992.38;5012386;28;20511;-82
2023/08/11 10:26:47;;;;;;;23.80;3.53;;;;;;;18.74;100.00;99992.66;5027577;28;20072;-83
2023/08/11 10:29:17;;;;;;;20.88;3.35;;;;;;;18.63;100.00;99993.28;4994685;28;20037;-82
2023/08/11 10:31:54;;;;;;;25.60;4.85;;;;;;;18.61;100.00;99993.50;5018230;28;20057;-83
2023/08/11 10:34:25;;;;;;;19.08;4.13;;;;;;;18.68;100.00;99991.63;5009362;28;20108;-83
2023/08/11 10:36:56;;;;;;;23.13;4.60;;;;;;;18.87;100.00;99985.63;5016379;28;20034;-82
2023/08/11 10:39:22;;;;;;;27.25;3.78;;;;;;;18.91;100.00;99979.63;5016164;28;20029;-83
2023/08/11 10:41:49;;;;;;;16.83;3.05;;;;;;;18.95;100.00;99974.69;5021628;28;20068;-83
2023/08/11 10:44:19;;;;;;;19.33;3.88;;;;;;;19.06;100.00;99978.53;5019490;28;20038;-83
2023/08/11 10:46:47;;;;;;;16.95;3.38;;;;;;;19.20;100.00;99965.94;5025675;28;20033;-83
2023/08/11 10:49:13;;;;;;;17.13;3.92;;;;;;;19.32;100.00;99966.91;5020994;28;20049;-83
2023/08/11 10:51:40;;;;;;;20.88;4.07;;;;;;;19.46;100.00;99961.47;5026761;28;20037;-83
2023/08/11 10:54:06;;;;;;;23.63;4.72;;;;;;;19.51;100.00;99948.22;5009516;28;20038;-83
2023/08/11 10:56:33;;;;;;;19.73;3.53;;;;;;;19.48;100.00;99962.06;5024997;28;20375;-83
2023/08/11 10:59:08;;;;;;;21.05;4.53;;;;;;;19.55;100.00;99959.34;5020350;28;20038;-83
2023/08/11 11:01:39;;;;;;;19.33;4.53;;;;;;;19.63;100.00;99958.28;5024375;28;20042;-83
2023/08/11 11:04:06;;;;;;;13.90;3.28;;;;;;;19.67;100.00;99971.03;5027535;28;20495;-81
2023/08/11 11:06:34;;;;;;;19.50;3.88;;;;;;;19.73;100.00;99952.44;5006517;28;20030;-81
2023/08/11 11:09:01;;;;;;;20.63;3.50;;;;;;;19.73;100.00;99961.31;5009732;28;20072;-83